Capitol Logistics 7346

Operating for MZN



KBDL
Bradley International Airport
Windsor Locks, Connecticut
KRFD
Chicago/Rockford International Airport
Rockford, Illinois

Activity Log

Date Flight Route Aircraft Duration
No Flights Yet

Route Details

Aircraft Information
Primary: Boeing 767-300BDSF
Backup: Boeing 757-200SF
Route Data
Distance: 731nm
Duration: 1h 58m
Recm'd Route: CTR HNK J49 BUFFY J95 CFB Q818 VIEEW Q82 JHW J70 PMM RFD
Origin Wx: KBDL 180051Z 33003KT 10SM BKN065 08/02 A2979 RMK AO2 SLP089 T00830017
Dest. Wx: KRFD 180054Z 01007KT 10SM BKN250 12/M01 A2995 RMK AO2 SLP146 T01171011
Notes: